Time;durP1;ratioP1;P1;durP2;ratioP2;P2;SDS_P1;SDS_P2;PMS_P1;PMS_P2;Temp;Humidity;BMP_temperature;BMP_pressure;BME280_temperature;BME280_humidity;BME280_pressure;Samples;Min_cycle;Max_cycle;Signal;HPM_P1;HPM_P2
2023/11/26 00:02:05;;;;;;;13.90;12.57;;;8.10;99.90;;;;;;5010375;28;20246;-71
2023/11/26 00:04:32;;;;;;;18.53;14.07;;;8.10;99.90;;;;;;5005241;28;20418;-72
2023/11/26 00:06:58;;;;;;;19.63;14.47;;;8.10;99.90;;;;;;4994295;28;20411;-71
2023/11/26 00:09:24;;;;;;;18.33;13.90;;;8.10;99.90;;;;;;4993552;28;20422;-71
2023/11/26 00:11:50;;;;;;;15.80;13.30;;;8.10;99.90;;;;;;4994019;28;20226;-71
2023/11/26 00:14:16;;;;;;;15.47;13.73;;;8.10;99.90;;;;;;4993706;28;20579;-71
2023/11/26 00:16:42;;;;;;;15.97;14.33;;;8.10;99.90;;;;;;4994255;28;20411;-71
2023/11/26 00:19:08;;;;;;;19.43;14.00;;;8.10;99.90;;;;;;4993943;28;20411;-62
2023/11/26 00:21:33;;;;;;;18.97;14.47;;;8.10;99.90;;;;;;5007428;28;20183;-71
2023/11/26 00:23:59;;;;;;;19.93;14.97;;;8.20;99.90;;;;;;5013260;28;20521;-71
2023/11/26 00:26:26;;;;;;;16.70;13.63;;;8.10;99.90;;;;;;5013105;28;20187;-71
2023/11/26 00:28:52;;;;;;;19.17;14.87;;;8.10;99.90;;;;;;5013621;28;20809;-72
2023/11/26 00:31:20;;;;;;;16.83;13.70;;;8.20;99.90;;;;;;5012727;28;20399;-71
2023/11/26 00:33:48;;;;;;;17.17;13.97;;;8.20;99.90;;;;;;5013314;28;20440;-72
2023/11/26 00:36:18;;;;;;;18.53;14.70;;;8.20;99.90;;;;;;5012764;28;20472;-71
2023/11/26 00:38:44;;;;;;;18.40;15.77;;;8.20;99.90;;;;;;5013533;28;20414;-71
2023/11/26 00:41:10;;;;;;;20.23;15.07;;;8.20;99.90;;;;;;5012085;28;21024;-70
2023/11/26 00:43:36;;;;;;;17.63;14.80;;;8.30;99.90;;;;;;4988395;28;20490;-71
2023/11/26 00:46:02;;;;;;;19.03;15.87;;;8.30;99.90;;;;;;5003690;28;20415;-71
2023/11/26 00:48:28;;;;;;;20.00;16.20;;;8.20;99.90;;;;;;4994185;28;20411;-71
2023/11/26 00:50:54;;;;;;;20.60;15.63;;;8.30;99.90;;;;;;4994463;28;20769;-71
2023/11/26 00:53:21;;;;;;;25.27;16.97;;;8.30;99.90;;;;;;4992962;28;20555;-71
2023/11/26 00:55:47;;;;;;;24.93;17.33;;;8.30;99.90;;;;;;4993621;28;20416;-71
2023/11/26 00:58:13;;;;;;;24.97;18.80;;;8.30;99.90;;;;;;4993087;28;20744;-71
2023/11/26 01:00:39;;;;;;;22.57;16.73;;;8.30;99.90;;;;;;5001519;28;20620;-70
2023/11/26 01:03:05;;;;;;;22.50;16.10;;;8.30;99.90;;;;;;5003530;28;20476;-71
2023/11/26 01:05:31;;;;;;;22.33;16.47;;;8.30;99.90;;;;;;5000233;28;20178;-71
2023/11/26 01:07:57;;;;;;;25.60;17.27;;;8.30;99.90;;;;;;5002619;28;20429;-71
2023/11/26 01:10:23;;;;;;;27.70;17.83;;;8.20;99.90;;;;;;4984383;28;20786;-71
2023/11/26 01:12:48;;;;;;;23.93;16.73;;;8.20;99.90;;;;;;5003782;28;20206;-71
2023/11/26 01:15:15;;;;;;;24.07;16.80;;;8.20;99.90;;;;;;4992830;28;20187;-71
2023/11/26 01:17:42;;;;;;;24.27;16.37;;;8.20;99.90;;;;;;4992812;28;20180;-71
2023/11/26 01:20:11;;;;;;;23.67;17.60;;;8.20;99.90;;;;;;4992645;28;20961;-71
2023/11/26 01:22:38;;;;;;;22.40;16.93;;;8.10;99.90;;;;;;4993061;28;20458;-71
2023/11/26 01:25:05;;;;;;;27.10;16.80;;;8.10;99.90;;;;;;4993259;28;20771;-72
2023/11/26 01:27:31;;;;;;;22.17;16.20;;;8.10;99.90;;;;;;4992631;28;20415;-71
2023/11/26 01:29:56;;;;;;;19.73;14.60;;;8.10;99.90;;;;;;4993187;28;20415;-71
2023/11/26 01:32:22;;;;;;;23.70;16.40;;;8.10;99.90;;;;;;4992476;28;20548;-71
2023/11/26 01:34:48;;;;;;;23.23;16.10;;;8.10;99.90;;;;;;4993149;28;20268;-71
2023/11/26 01:37:15;;;;;;;23.97;16.13;;;8.10;99.90;;;;;;4992137;28;20176;-71
2023/11/26 01:39:40;;;;;;;21.20;16.17;;;8.00;99.90;;;;;;4993115;28;20168;-70
2023/11/26 01:42:06;;;;;;;24.37;17.43;;;8.00;99.90;;;;;;4993097;28;20494;-71
2023/11/26 01:44:32;;;;;;;24.90;17.00;;;8.00;99.90;;;;;;4992500;28;20191;-71
2023/11/26 01:47:05;;;;;;;22.60;16.53;;;8.00;99.90;;;;;;4993046;28;20508;-71
2023/11/26 01:49:37;;;;;;;20.37;15.90;;;7.90;99.90;;;;;;4992257;28;20407;-70
2023/11/26 01:52:08;;;;;;;25.80;17.27;;;8.00;99.90;;;;;;4992310;28;20893;-71
2023/11/26 01:54:35;;;;;;;19.87;16.23;;;8.00;99.90;;;;;;4974972;28;20485;-71
2023/11/26 01:57:02;;;;;;;21.50;16.80;;;8.00;99.90;;;;;;4975731;28;20423;-72
2023/11/26 01:59:29;;;;;;;22.50;16.60;;;8.00;99.90;;;;;;4992318;28;20409;-69
2023/11/26 02:01:55;;;;;;;21.93;15.67;;;8.00;99.90;;;;;;4992895;28;20437;-71
2023/11/26 02:04:21;;;;;;;22.83;16.83;;;8.10;99.90;;;;;;4992326;28;20822;-70
2023/11/26 02:06:48;;;;;;;21.83;16.93;;;8.10;99.90;;;;;;4992493;28;20422;-70
2023/11/26 02:09:16;;;;;;;22.23;17.20;;;8.10;99.90;;;;;;4992274;28;20443;-69
2023/11/26 02:11:46;;;;;;;22.00;16.73;;;8.00;99.90;;;;;;4992732;28;20587;-70
2023/11/26 02:14:12;;;;;;;21.30;15.73;;;8.10;99.90;;;;;;4992922;28;20409;-70
2023/11/26 02:16:39;;;;;;;20.80;16.80;;;8.10;99.90;;;;;;4992636;28;20407;-70
2023/11/26 02:19:26;;;;;;;18.03;15.63;;;8.00;99.90;;;;;;4992782;28;20481;-71
2023/11/26 02:21:52;;;;;;;16.50;14.60;;;8.10;99.90;;;;;;4992078;28;20395;-70
2023/11/26 02:24:29;;;;;;;19.40;13.67;;;8.10;99.90;;;;;;4974501;28;20918;-70
2023/11/26 02:26:55;;;;;;;14.83;12.53;;;8.10;99.90;;;;;;4992799;28;20423;-71
2023/11/26 02:29:23;;;;;;;16.00;12.50;;;8.10;99.90;;;;;;4993188;28;20418;-70
2023/11/26 02:31:49;;;;;;;14.20;12.60;;;8.20;99.90;;;;;;4996234;28;20807;-70
2023/11/26 02:34:15;;;;;;;17.07;13.20;;;8.10;99.90;;;;;;4995626;28;20420;-70
2023/11/26 02:36:40;;;;;;;14.33;12.17;;;8.10;99.90;;;;;;4995975;28;20809;-69
2023/11/26 02:39:06;;;;;;;13.43;12.03;;;8.20;99.90;;;;;;4995980;28;20259;-71
2023/11/26 02:41:32;;;;;;;14.70;11.73;;;8.20;99.90;;;;;;4995147;28;20215;-70
2023/11/26 02:43:58;;;;;;;14.23;11.20;;;8.20;99.90;;;;;;4996062;28;20176;-71
2023/11/26 02:46:24;;;;;;;14.60;12.07;;;8.20;99.90;;;;;;4995488;28;20407;-70
2023/11/26 02:48:50;;;;;;;13.77;11.57;;;8.10;99.90;;;;;;4996015;28;20235;-71
2023/11/26 02:51:16;;;;;;;15.00;10.87;;;8.10;99.90;;;;;;4995275;28;20175;-69
2023/11/26 02:53:41;;;;;;;12.73;10.70;;;8.10;99.90;;;;;;4995245;28;20227;-70
2023/11/26 02:56:07;;;;;;;11.60;10.40;;;8.10;99.90;;;;;;4995879;28;20191;-71
2023/11/26 02:58:33;;;;;;;11.70;10.00;;;8.10;99.90;;;;;;4977847;28;20179;-70
2023/11/26 03:00:58;;;;;;;11.47;9.50;;;8.10;99.90;;;;;;4996049;28;20175;-71
2023/11/26 03:03:24;;;;;;;13.10;9.93;;;8.10;99.90;;;;;;4995145;28;20184;-70
2023/11/26 03:05:54;;;;;;;12.93;9.67;;;8.10;99.90;;;;;;4995146;28;20543;-71
2023/11/26 03:08:32;;;;;;;10.90;9.07;;;8.00;99.90;;;;;;4994768;28;20508;-70
2023/11/26 03:13:42;;;;;;;10.90;9.80;;;8.00;99.90;;;;;;4995631;28;20439;-71
2023/11/26 03:16:08;;;;;;;10.63;9.13;;;8.00;99.90;;;;;;4995498;28;20767;-71
2023/11/26 03:18:34;;;;;;;13.37;10.07;;;8.00;99.90;;;;;;4994808;28;20250;-70
2023/11/26 03:21:00;;;;;;;11.00;9.57;;;8.00;99.90;;;;;;4977687;28;20407;-71
2023/11/26 03:23:27;;;;;;;10.67;9.57;;;8.00;99.90;;;;;;4994221;28;20843;-70
2023/11/26 03:25:53;;;;;;;11.87;9.70;;;7.90;99.90;;;;;;4995254;28;20528;-70
2023/11/26 03:28:19;;;;;;;10.60;9.50;;;7.90;99.90;;;;;;4994722;28;20411;-70
2023/11/26 03:30:46;;;;;;;13.93;11.07;;;7.90;99.90;;;;;;4995154;28;20407;-71
2023/11/26 03:33:16;;;;;;;15.70;11.73;;;7.90;99.90;;;;;;4995127;28;20954;-70
2023/11/26 03:35:43;;;;;;;14.93;10.93;;;7.90;99.90;;;;;;4994942;28;20407;-70
2023/11/26 03:38:09;;;;;;;13.40;10.50;;;7.90;99.90;;;;;;4994890;28;20419;-71
2023/11/26 03:40:35;;;;;;;13.30;11.60;;;7.80;99.90;;;;;;4993979;28;20441;-70
2023/11/26 03:43:01;;;;;;;13.97;11.00;;;7.90;99.90;;;;;;4977694;28;20845;-70
2023/11/26 03:45:27;;;;;;;15.20;11.90;;;7.90;99.90;;;;;;4994416;28;20435;-70
2023/11/26 03:47:53;;;;;;;12.00;10.70;;;7.90;99.90;;;;;;4994874;28;20414;-71
2023/11/26 03:50:19;;;;;;;20.77;12.43;;;7.90;99.90;;;;;;4994321;28;20539;-68
2023/11/26 03:52:45;;;;;;;14.63;11.87;;;7.90;99.90;;;;;;4994613;28;20254;-70
2023/11/26 03:55:11;;;;;;;17.47;12.67;;;7.90;99.90;;;;;;4994840;28;20430;-71
2023/11/26 03:57:37;;;;;;;24.33;13.13;;;7.90;99.90;;;;;;4994112;28;20419;-70
2023/11/26 04:00:10;;;;;;;22.67;14.23;;;8.00;99.90;;;;;;4994675;28;20407;-71
2023/11/26 04:02:36;;;;;;;20.50;14.90;;;8.00;99.90;;;;;;4994005;28;20412;-70
2023/11/26 04:05:04;;;;;;;17.97;14.43;;;8.00;99.90;;;;;;4994630;28;20415;-70
2023/11/26 04:07:30;;;;;;;25.83;15.17;;;8.00;99.90;;;;;;4994177;28;20419;-70
2023/11/26 04:09:55;;;;;;;23.60;14.13;;;8.00;99.90;;;;;;4994221;28;20415;-71
2023/11/26 04:12:21;;;;;;;22.97;13.80;;;7.90;99.90;;;;;;4993826;28;20938;-70
2023/11/26 04:14:54;;;;;;;21.50;14.00;;;8.00;99.90;;;;;;4994105;28;20179;-71
2023/11/26 04:17:21;;;;;;;20.67;14.03;;;8.00;99.90;;;;;;4993739;28;20172;-70
2023/11/26 04:19:48;;;;;;;21.90;15.27;;;7.90;99.90;;;;;;4994279;28;20762;-70
2023/11/26 04:22:14;;;;;;;21.70;13.80;;;8.00;99.90;;;;;;4993882;28;21036;-71
2023/11/26 04:24:43;;;;;;;20.70;14.20;;;8.00;99.90;;;;;;4975803;28;20508;-70
2023/11/26 04:27:09;;;;;;;25.23;15.43;;;7.90;99.90;;;;;;4993935;28;20443;-70
2023/11/26 04:29:35;;;;;;;26.50;15.20;;;7.90;99.90;;;;;;4993518;28;20491;-70
2023/11/26 04:32:01;;;;;;;21.23;14.57;;;7.90;99.90;;;;;;4993956;28;20458;-70
2023/11/26 04:34:27;;;;;;;24.17;15.37;;;7.90;99.90;;;;;;4993260;28;20500;-70
2023/11/26 04:36:53;;;;;;;24.40;15.97;;;7.90;99.90;;;;;;4994073;28;20557;-71
2023/11/26 04:39:18;;;;;;;23.63;15.30;;;7.90;99.90;;;;;;4994051;28;20646;-71
2023/11/26 04:41:44;;;;;;;22.90;15.43;;;7.90;99.90;;;;;;4993238;28;20183;-70
2023/11/26 04:44:10;;;;;;;24.80;13.93;;;7.90;99.90;;;;;;4993822;28;20179;-70
2023/11/26 04:46:36;;;;;;;22.37;14.17;;;7.90;99.90;;;;;;4993238;28;20532;-70
2023/11/26 04:49:02;;;;;;;24.67;13.90;;;7.80;99.90;;;;;;4993587;28;20407;-69
2023/11/26 04:51:28;;;;;;;24.83;14.13;;;7.80;99.90;;;;;;4992301;28;20411;-70
2023/11/26 04:53:53;;;;;;;22.00;13.43;;;7.80;99.90;;;;;;4993815;28;20186;-71
2023/11/26 04:56:20;;;;;;;24.20;15.07;;;7.80;99.90;;;;;;4993738;28;20624;-71
2023/11/26 04:58:46;;;;;;;21.07;13.27;;;7.80;99.90;;;;;;4993338;28;20172;-71
2023/11/26 05:01:16;;;;;;;21.77;14.00;;;7.80;99.90;;;;;;4993327;28;20910;-71
2023/11/26 05:03:41;;;;;;;21.50;13.27;;;7.80;99.90;;;;;;4992687;28;20497;-70
2023/11/26 05:06:08;;;;;;;20.77;13.00;;;7.80;99.90;;;;;;4993337;28;20981;-71
2023/11/26 05:08:33;;;;;;;18.63;11.83;;;7.80;99.90;;;;;;4992919;28;20180;-69
2023/11/26 05:11:01;;;;;;;21.87;13.33;;;7.80;99.90;;;;;;4992803;28;20402;-71
2023/11/26 05:13:27;;;;;;;22.70;13.97;;;7.80;99.90;;;;;;4992549;28;20682;-70
2023/11/26 05:15:53;;;;;;;23.13;14.33;;;7.80;99.90;;;;;;4993345;28;20427;-71
2023/11/26 05:18:20;;;;;;;16.97;12.23;;;7.70;99.90;;;;;;4976552;28;20422;-69
2023/11/26 05:20:48;;;;;;;19.10;13.27;;;8.00;99.90;;;;;;4992728;28;20203;-71
2023/11/26 05:23:14;;;;;;;19.83;14.00;;;7.80;99.90;;;;;;4993310;28;20614;-71
2023/11/26 05:25:40;;;;;;;21.40;13.07;;;7.80;99.90;;;;;;4992391;28;20479;-69
2023/11/26 05:28:06;;;;;;;16.90;11.97;;;7.80;99.90;;;;;;4993030;28;20418;-71
2023/11/26 05:30:31;;;;;;;18.30;13.00;;;7.80;99.90;;;;;;4992605;28;20179;-70
2023/11/26 05:32:57;;;;;;;20.73;14.27;;;7.80;99.90;;;;;;4993066;28;20195;-71
2023/11/26 05:35:27;;;;;;;23.80;13.80;;;7.80;99.90;;;;;;4992458;28;20568;-61
2023/11/26 05:37:55;;;;;;;21.27;13.47;;;7.80;99.90;;;;;;4993163;28;20168;-70
2023/11/26 05:40:21;;;;;;;20.40;13.50;;;7.80;99.90;;;;;;4975454;28;20890;-71
2023/11/26 05:42:49;;;;;;;21.70;14.80;;;7.80;99.90;;;;;;4992539;28;20426;-71
2023/11/26 05:45:15;;;;;;;23.87;14.57;;;7.80;99.90;;;;;;4993064;28;20411;-70
2023/11/26 05:47:40;;;;;;;25.40;14.53;;;7.80;99.90;;;;;;4992353;28;20410;-70
2023/11/26 05:50:07;;;;;;;22.60;13.60;;;7.80;99.90;;;;;;4992937;28;20898;-70
2023/11/26 05:52:34;;;;;;;23.40;14.40;;;7.80;99.90;;;;;;4991905;28;20227;-70
2023/11/26 05:55:01;;;;;;;23.83;13.90;;;7.80;99.90;;;;;;4992941;28;20446;-70
2023/11/26 05:57:27;;;;;;;22.60;13.60;;;7.80;99.90;;;;;;4992206;28;20412;-70
2023/11/26 05:59:53;;;;;;;22.57;14.20;;;7.80;99.90;;;;;;4975451;28;20829;-70
2023/11/26 06:02:19;;;;;;;21.27;13.87;;;7.80;99.90;;;;;;4992925;28;20411;-70
2023/11/26 06:04:45;;;;;;;19.93;13.00;;;7.80;99.90;;;;;;4995504;28;20414;-71
2023/11/26 06:07:10;;;;;;;19.90;13.07;;;7.80;99.90;;;;;;4996711;28;20422;-71
2023/11/26 06:09:36;;;;;;;17.53;12.37;;;7.90;99.90;;;;;;4996136;28;20207;-70
2023/11/26 06:12:03;;;;;;;17.90;12.77;;;7.90;99.90;;;;;;4996159;28;20750;-70
2023/11/26 06:14:29;;;;;;;17.43;12.93;;;7.80;99.90;;;;;;4996082;28;20212;-70
2023/11/26 06:16:54;;;;;;;21.03;12.13;;;7.80;99.90;;;;;;4996558;28;20449;-71
2023/11/26 06:19:20;;;;;;;24.93;12.60;;;7.80;99.90;;;;;;4996338;28;20168;-71
2023/11/26 06:21:47;;;;;;;12.67;10.37;;;7.90;99.90;;;;;;4995770;28;20321;-71
2023/11/26 06:24:13;;;;;;;17.07;11.50;;;7.90;99.90;;;;;;4996508;28;20176;-71
2023/11/26 06:26:40;;;;;;;12.40;9.90;;;7.90;99.90;;;;;;4995541;28;20418;-70
2023/11/26 06:29:07;;;;;;;13.97;10.40;;;7.90;99.90;;;;;;4996377;28;20177;-70
2023/11/26 06:31:34;;;;;;;13.83;9.40;;;7.90;99.90;;;;;;4995690;28;20446;-71
2023/11/26 06:34:00;;;;;;;15.03;10.87;;;7.90;99.90;;;;;;4996083;28;20760;-68
2023/11/26 06:36:26;;;;;;;12.03;10.33;;;7.90;99.90;;;;;;4996308;28;20423;-71
2023/11/26 06:38:53;;;;;;;19.33;10.03;;;7.90;99.90;;;;;;4996154;28;20506;-71
2023/11/26 06:41:29;;;;;;;12.63;10.23;;;7.90;99.90;;;;;;4996153;28;20514;-71
2023/11/26 06:43:59;;;;;;;17.93;11.33;;;7.90;99.90;;;;;;4978503;28;20430;-71
2023/11/26 06:46:27;;;;;;;17.03;11.10;;;8.00;99.90;;;;;;4995999;28;20411;-71
2023/11/26 06:48:53;;;;;;;14.30;10.47;;;7.90;99.90;;;;;;4995931;28;20532;-70
2023/11/26 06:51:19;;;;;;;15.03;9.80;;;7.90;99.90;;;;;;4995791;28;20502;-71
2023/11/26 06:53:52;;;;;;;13.50;10.40;;;8.00;99.90;;;;;;4995233;28;20482;-71
2023/11/26 06:56:18;;;;;;;16.17;10.47;;;8.10;99.90;;;;;;4995626;28;20825;-70
2023/11/26 06:58:44;;;;;;;12.60;9.87;;;8.10;99.90;;;;;;4977568;28;20512;-70
2023/11/26 07:01:11;;;;;;;12.97;10.53;;;8.00;99.90;;;;;;4995308;28;20442;-71
2023/11/26 07:03:38;;;;;;;12.03;10.73;;;8.10;99.90;;;;;;4994888;28;20498;-70
2023/11/26 07:06:08;;;;;;;22.27;11.20;;;8.10;99.90;;;;;;4995279;28;20423;-71
2023/11/26 07:08:38;;;;;;;17.77;11.60;;;8.10;99.90;;;;;;4994448;28;20410;-70
2023/11/26 07:11:06;;;;;;;12.13;9.80;;;8.10;99.90;;;;;;4995524;28;20407;-71
2023/11/26 07:13:35;;;;;;;17.03;11.40;;;8.10;99.90;;;;;;4994524;28;20450;-70
2023/11/26 07:16:04;;;;;;;14.83;11.00;;;8.00;99.90;;;;;;4994639;28;20415;-71
2023/11/26 07:18:30;;;;;;;17.60;12.13;;;8.10;99.90;;;;;;4994966;28;20411;-70
2023/11/26 07:20:56;;;;;;;17.20;11.97;;;8.00;99.90;;;;;;4995352;28;20413;-70
2023/11/26 07:23:21;;;;;;;13.20;10.70;;;8.00;99.90;;;;;;4995553;28;20172;-71
2023/11/26 07:25:48;;;;;;;13.87;11.47;;;8.00;99.90;;;;;;4994690;28;20219;-71
2023/11/26 07:28:14;;;;;;;17.30;12.10;;;8.10;99.90;;;;;;4994922;28;20242;-69
2023/11/26 07:30:42;;;;;;;17.77;11.67;;;8.10;99.90;;;;;;4994671;28;20418;-70
2023/11/26 07:33:08;;;;;;;15.53;12.00;;;8.00;99.90;;;;;;4995111;28;20462;-71
2023/11/26 07:35:34;;;;;;;13.93;11.90;;;7.90;99.90;;;;;;4994071;28;20818;-71
2023/11/26 07:38:01;;;;;;;17.90;12.23;;;8.00;99.90;;;;;;4995376;28;20518;-71
2023/11/26 07:40:29;;;;;;;14.67;12.10;;;8.00;99.90;;;;;;4995095;28;20219;-71
2023/11/26 07:42:55;;;;;;;15.67;12.43;;;8.10;99.90;;;;;;4994692;28;20422;-71
2023/11/26 07:45:21;;;;;;;16.33;12.20;;;8.00;99.90;;;;;;4994758;28;20407;-71
2023/11/26 07:47:46;;;;;;;19.60;13.60;;;8.00;99.90;;;;;;4993056;28;20419;-70
2023/11/26 07:50:12;;;;;;;24.60;14.63;;;8.00;99.90;;;;;;4994904;28;20414;-71
2023/11/26 07:52:39;;;;;;;15.43;13.00;;;8.00;99.90;;;;;;4992734;28;20255;-70
2023/11/26 07:55:05;;;;;;;18.10;13.07;;;8.00;99.90;;;;;;4994463;28;20635;-71
2023/11/26 07:57:32;;;;;;;19.97;13.40;;;8.00;99.90;;;;;;4994182;28;20419;-63
2023/11/26 07:59:59;;;;;;;18.30;13.17;;;8.10;99.90;;;;;;4994331;28;20411;-71
2023/11/26 08:02:29;;;;;;;22.00;14.23;;;8.10;99.90;;;;;;4977374;28;20426;-71
2023/11/26 08:04:56;;;;;;;18.47;14.10;;;8.10;99.90;;;;;;4994094;28;20477;-71
2023/11/26 08:07:23;;;;;;;23.60;13.50;;;8.10;99.90;;;;;;4994640;28;20503;-71
2023/11/26 08:09:53;;;;;;;17.70;13.67;;;8.10;99.90;;;;;;4993879;28;20426;-70
2023/11/26 08:12:20;;;;;;;20.40;13.80;;;8.30;99.90;;;;;;5009610;28;20454;-70
2023/11/26 08:14:52;;;;;;;19.10;14.40;;;8.10;99.90;;;;;;5013160;28;20414;-71
2023/11/26 08:17:19;;;;;;;17.17;13.47;;;8.10;99.90;;;;;;5014093;28;20420;-71
2023/11/26 08:19:45;;;;;;;20.93;13.60;;;8.20;99.90;;;;;;5013336;28;20445;-71
2023/11/26 08:22:12;;;;;;;16.50;13.40;;;8.20;99.90;;;;;;4998854;28;20427;-71
2023/11/26 08:24:46;;;;;;;16.77;13.33;;;8.20;99.90;;;;;;4993587;28;20451;-71
2023/11/26 08:27:14;;;;;;;18.60;12.70;;;8.20;99.90;;;;;;4994392;28;20494;-71
2023/11/26 08:29:43;;;;;;;19.03;13.73;;;8.20;99.90;;;;;;4993126;28;20414;-69
2023/11/26 08:32:10;;;;;;;21.03;13.90;;;8.20;99.90;;;;;;5007920;28;20454;-71
2023/11/26 08:34:38;;;;;;;20.40;14.10;;;8.20;99.90;;;;;;5013403;28;20517;-70
2023/11/26 08:37:05;;;;;;;20.73;13.67;;;8.20;99.90;;;;;;5013606;28;20441;-70
2023/11/26 08:39:34;;;;;;;15.80;13.23;;;8.20;99.90;;;;;;5013758;28;20429;-71
2023/11/26 08:42:04;;;;;;;18.40;12.80;;;8.20;99.90;;;;;;4987132;28;20922;-70
2023/11/26 08:44:33;;;;;;;25.50;14.30;;;8.20;99.90;;;;;;5002451;28;20403;-70
2023/11/26 08:46:59;;;;;;;19.13;13.60;;;8.20;99.90;;;;;;5002903;28;20488;-70
2023/11/26 08:49:27;;;;;;;19.60;13.13;;;8.20;99.90;;;;;;5004169;28;20403;-70
2023/11/26 08:51:54;;;;;;;19.73;13.53;;;8.30;99.90;;;;;;5001806;28;20517;-70
2023/11/26 08:54:21;;;;;;;17.87;13.23;;;8.30;99.90;;;;;;5002598;28;20501;-70
2023/11/26 08:56:48;;;;;;;22.47;14.97;;;8.30;99.90;;;;;;5003111;28;20508;-70
2023/11/26 08:59:14;;;;;;;21.70;13.83;;;8.30;99.90;;;;;;4996076;28;20414;-71
2023/11/26 09:01:39;;;;;;;19.17;13.43;;;8.30;99.90;;;;;;5000063;28;20422;-70
2023/11/26 09:04:07;;;;;;;17.00;14.23;;;8.30;99.90;;;;;;5001689;28;20179;-69
2023/11/26 09:06:33;;;;;;;16.23;13.00;;;8.40;99.90;;;;;;5003524;28;20175;-70
2023/11/26 09:08:58;;;;;;;18.93;13.67;;;8.40;99.90;;;;;;5002673;28;20439;-71
2023/11/26 09:11:26;;;;;;;16.13;13.43;;;8.40;99.90;;;;;;5001796;28;20494;-69
2023/11/26 09:13:52;;;;;;;20.00;14.10;;;8.40;99.90;;;;;;5002786;28;20183;-70
2023/11/26 09:16:19;;;;;;;20.83;14.67;;;8.50;99.90;;;;;;5002726;28;20411;-71
2023/11/26 09:18:45;;;;;;;20.90;13.47;;;8.50;99.90;;;;;;4998215;28;20411;-70
2023/11/26 09:21:12;;;;;;;18.83;13.30;;;8.50;99.90;;;;;;4993079;28;20403;-71
2023/11/26 09:23:42;;;;;;;18.97;13.90;;;8.60;99.90;;;;;;4992998;28;20457;-70
2023/11/26 09:26:12;;;;;;;20.77;14.20;;;8.60;99.90;;;;;;4993258;28;20436;-70
2023/11/26 09:28:38;;;;;;;20.57;14.07;;;8.60;99.90;;;;;;4992639;28;20427;-70
2023/11/26 09:31:05;;;;;;;17.53;13.60;;;8.60;99.90;;;;;;4998236;28;20431;-68
2023/11/26 09:33:31;;;;;;;18.77;14.20;;;8.70;99.90;;;;;;5000896;28;20494;-71
2023/11/26 09:35:57;;;;;;;19.13;13.80;;;8.70;99.90;;;;;;4992137;28;20420;-70
2023/11/26 09:38:23;;;;;;;17.47;13.73;;;8.70;99.90;;;;;;4996628;28;20433;-71
2023/11/26 09:40:49;;;;;;;20.07;13.93;;;8.80;99.90;;;;;;4999063;28;20424;-70
2023/11/26 09:43:16;;;;;;;21.70;14.43;;;8.70;99.90;;;;;;4999935;28;20185;-71
2023/11/26 09:45:45;;;;;;;16.87;13.77;;;8.80;99.90;;;;;;5001131;28;20188;-71
2023/11/26 09:48:11;;;;;;;18.83;14.40;;;8.80;99.90;;;;;;4999477;28;20463;-71
2023/11/26 09:50:38;;;;;;;16.63;13.53;;;8.80;99.90;;;;;;5001071;28;20454;-70
2023/11/26 09:53:07;;;;;;;20.67;14.00;;;8.80;99.90;;;;;;4999873;28;20482;-71
2023/11/26 09:55:42;;;;;;;24.37;16.93;;;8.80;99.90;;;;;;4999483;28;20423;-71
2023/11/26 09:58:08;;;;;;;17.87;13.60;;;8.80;99.90;;;;;;4999597;28;20430;-70
2023/11/26 10:00:34;;;;;;;17.93;13.83;;;8.80;99.90;;;;;;5001905;28;20415;-70
2023/11/26 10:03:02;;;;;;;16.67;12.80;;;8.90;99.90;;;;;;5011056;28;20420;-70
2023/11/26 10:05:29;;;;;;;20.00;13.03;;;8.90;99.90;;;;;;5018703;28;20409;-71
2023/11/26 10:07:55;;;;;;;19.30;13.60;;;8.90;99.90;;;;;;5018395;28;20843;-71
2023/11/26 10:10:23;;;;;;;19.23;13.43;;;8.90;99.90;;;;;;5019096;28;20439;-71
2023/11/26 10:12:56;;;;;;;18.90;13.90;;;8.90;99.90;;;;;;5018299;28;20214;-70
2023/11/26 10:15:24;;;;;;;17.33;13.17;;;8.90;99.90;;;;;;5009428;28;20406;-71
2023/11/26 10:18:05;;;;;;;15.03;12.97;;;8.90;99.90;;;;;;5016494;28;20471;-70
2023/11/26 10:20:32;;;;;;;19.37;13.90;;;8.90;99.90;;;;;;5019053;28;20422;-72
2023/11/26 10:22:57;;;;;;;17.73;13.40;;;8.90;99.90;;;;;;5000404;28;20945;-72
2023/11/26 10:25:24;;;;;;;19.80;13.87;;;8.90;99.90;;;;;;5000731;28;20434;-71
2023/11/26 10:27:55;;;;;;;17.30;13.80;;;8.90;99.90;;;;;;5018269;28;20429;-71
2023/11/26 10:30:27;;;;;;;21.00;12.87;;;8.90;99.90;;;;;;5016286;28;20452;-72
2023/11/26 10:33:07;;;;;;;17.97;13.63;;;8.90;99.90;;;;;;4980986;28;20484;-71
2023/11/26 10:35:48;;;;;;;21.47;15.00;;;9.00;99.90;;;;;;4999034;28;20440;-70
2023/11/26 10:38:15;;;;;;;20.40;14.50;;;9.00;99.90;;;;;;5009073;28;20411;-72
2023/11/26 10:40:44;;;;;;;19.17;14.33;;;9.00;99.90;;;;;;5009075;28;20433;-62
2023/11/26 10:43:11;;;;;;;18.83;13.80;;;9.10;99.90;;;;;;5007880;28;20413;-71
2023/11/26 10:45:38;;;;;;;20.60;13.53;;;9.10;99.90;;;;;;5007335;28;20959;-72
2023/11/26 10:48:10;;;;;;;18.03;13.03;;;9.10;99.90;;;;;;5009242;28;20407;-70
2023/11/26 10:50:59;;;;;;;17.17;13.53;;;9.10;99.90;;;;;;4987523;28;20412;-72
2023/11/26 10:53:25;;;;;;;21.90;14.43;;;9.10;99.90;;;;;;5005791;28;20539;-71
2023/11/26 10:55:57;;;;;;;22.60;14.40;;;9.10;99.90;;;;;;5003713;28;20936;-71
2023/11/26 10:58:28;;;;;;;17.63;14.50;;;9.10;99.90;;;;;;5004126;28;20222;-72
2023/11/26 11:00:58;;;;;;;18.03;14.27;;;9.00;99.90;;;;;;5005766;28;20400;-72
2023/11/26 11:03:25;;;;;;;20.10;14.63;;;9.10;99.90;;;;;;4988600;28;20419;-71
2023/11/26 11:05:52;;;;;;;18.60;13.80;;;9.10;99.90;;;;;;5003623;28;20451;-71
2023/11/26 11:08:19;;;;;;;18.03;14.20;;;9.10;99.90;;;;;;5003839;28;20844;-71
2023/11/26 11:10:47;;;;;;;18.97;14.20;;;9.20;99.90;;;;;;5002921;28;20739;-71
2023/11/26 11:13:18;;;;;;;19.60;14.67;;;9.20;99.90;;;;;;5005273;28;20580;-71
2023/11/26 11:15:44;;;;;;;18.70;14.60;;;9.20;99.90;;;;;;5005445;28;20470;-70
2023/11/26 11:18:31;;;;;;;18.50;13.17;;;9.20;99.90;;;;;;5004031;28;20451;-72
2023/11/26 11:21:10;;;;;;;20.43;14.30;;;9.20;99.90;;;;;;5007254;28;20436;-72
2023/11/26 11:23:49;;;;;;;16.67;12.40;;;9.20;99.90;;;;;;5007772;28;20417;-72
2023/11/26 11:26:20;;;;;;;17.33;13.10;;;9.20;99.90;;;;;;5005743;28;20409;-71
2023/11/26 11:28:53;;;;;;;20.23;14.17;;;9.20;99.90;;;;;;5004986;28;20879;-71
2023/11/26 11:31:20;;;;;;;19.10;14.37;;;9.30;99.90;;;;;;5005007;28;20403;-72
2023/11/26 11:34:02;;;;;;;15.77;14.00;;;9.20;99.90;;;;;;5004706;28;20934;-71
2023/11/26 11:39:09;;;;;;;20.37;14.57;;;9.40;99.90;;;;;;5015112;28;20417;-71
2023/11/26 11:41:57;;;;;;;19.57;13.10;;;9.30;99.90;;;;;;5014726;28;20416;-71
2023/11/26 11:44:33;;;;;;;23.00;13.60;;;9.30;99.90;;;;;;5014325;28;20415;-71
2023/11/26 11:47:06;;;;;;;18.20;14.90;;;9.40;99.90;;;;;;5013923;28;20398;-70
2023/11/26 11:49:51;;;;;;;18.33;13.57;;;9.40;99.90;;;;;;5013220;28;20507;-72
2023/11/26 11:52:17;;;;;;;14.30;12.43;;;9.40;99.90;;;;;;4996251;28;20499;-71
2023/11/26 11:54:55;;;;;;;19.10;12.80;;;9.40;99.90;;;;;;5013876;28;20918;-69
2023/11/26 11:57:26;;;;;;;17.43;14.60;;;9.40;99.90;;;;;;4997302;28;20479;-72
2023/11/26 11:59:54;;;;;;;21.57;14.10;;;9.40;99.90;;;;;;5013607;28;20406;-71
2023/11/26 12:02:22;;;;;;;19.47;12.97;;;9.40;99.90;;;;;;4996517;28;20799;-71
2023/11/26 12:04:48;;;;;;;24.00;13.43;;;9.50;99.90;;;;;;4996143;28;20414;-71
2023/11/26 12:07:19;;;;;;;16.00;11.90;;;9.50;99.90;;;;;;5014568;28;20798;-70
2023/11/26 12:09:46;;;;;;;13.87;12.20;;;9.60;99.90;;;;;;5013522;28;20462;-71
2023/11/26 12:12:19;;;;;;;17.40;12.73;;;9.60;99.90;;;;;;4996630;28;20527;-71
2023/11/26 12:14:46;;;;;;;18.83;14.10;;;9.70;99.90;;;;;;5013607;28;20416;-62
2023/11/26 12:17:12;;;;;;;15.67;13.83;;;9.70;99.90;;;;;;5014147;28;20404;-71
2023/11/26 12:19:40;;;;;;;14.70;13.10;;;9.80;99.90;;;;;;4996538;28;20450;-69
2023/11/26 12:22:06;;;;;;;17.87;14.17;;;9.80;99.90;;;;;;4995776;28;20417;-70
2023/11/26 12:24:34;;;;;;;15.77;12.87;;;9.90;99.90;;;;;;4996423;28;20405;-71
2023/11/26 12:27:00;;;;;;;23.10;13.23;;;10.00;99.90;;;;;;5013022;28;20536;-76
2023/11/26 12:29:27;;;;;;;16.40;13.70;;;10.00;99.90;;;;;;5013901;28;20414;-77
2023/11/26 12:31:55;;;;;;;18.13;12.70;;;10.00;99.90;;;;;;5012816;28;20464;-76
2023/11/26 12:34:21;;;;;;;15.50;13.90;;;10.10;99.90;;;;;;4980056;28;20500;-76
2023/11/26 12:36:49;;;;;;;17.07;12.60;;;10.10;99.90;;;;;;5013142;28;21006;-75
2023/11/26 12:39:18;;;;;;;19.93;13.00;;;10.10;99.90;;;;;;4995867;28;20419;-76
2023/11/26 12:41:49;;;;;;;15.47;12.10;;;10.10;99.90;;;;;;4964222;28;20435;-75
2023/11/26 12:44:17;;;;;;;13.97;12.50;;;10.10;99.90;;;;;;5013523;28;20541;-70
2023/11/26 12:46:44;;;;;;;18.00;13.37;;;10.10;99.90;;;;;;4995527;28;20418;-76